createdAt,value
2022-11-16T00:00:36.458Z,95982.34
2022-11-16T00:02:40.469Z,95981.56
2022-11-16T00:04:43.171Z,95987.63
2022-11-16T00:06:46.406Z,95988.66
2022-11-16T00:09:11.658Z,95980.09
2022-11-16T00:11:17.994Z,95980.09
2022-11-16T00:13:21.023Z,95978.34
2022-11-16T00:15:23.599Z,95985.41
2022-11-16T00:17:26.155Z,95982.88
2022-11-16T00:19:30.500Z,95983.22
2022-11-16T00:21:33.881Z,95979.59
2022-11-16T00:23:38.435Z,95987.41
2022-11-16T00:25:41.062Z,95977.00
2022-11-16T00:27:43.659Z,95977.91
2022-11-16T00:29:46.239Z,95972.78
2022-11-16T00:31:49.283Z,95968.44
2022-11-16T00:33:53.051Z,95965.91
2022-11-16T00:35:57.356Z,95966.75
2022-11-16T00:37:59.982Z,95962.38
2022-11-16T00:40:02.577Z,95960.63
2022-11-16T00:42:05.227Z,95958.84
2022-11-16T00:44:08.105Z,95953.63
2022-11-16T00:46:11.154Z,95943.22
2022-11-16T00:48:13.857Z,95941.53
2022-11-16T00:50:17.045Z,95926.00
2022-11-16T00:52:21.065Z,95917.34
2022-11-16T00:54:23.858Z,95924.34
2022-11-16T00:56:26.533Z,95928.53
2022-11-16T00:58:29.110Z,95935.41
2022-11-16T01:00:32.123Z,95932.88
2022-11-16T01:02:34.751Z,95939.03
2022-11-16T01:04:37.382Z,95936.44
2022-11-16T01:06:40.027Z,95922.47
2022-11-16T01:08:44.915Z,95917.34
2022-11-16T01:10:47.495Z,95915.59
2022-11-16T01:12:50.448Z,95911.22
2022-11-16T01:14:53.110Z,95904.31
2022-11-16T01:16:55.744Z,95907.88
2022-11-16T01:18:58.620Z,95911.22
2022-11-16T01:21:01.218Z,95916.44
2022-11-16T01:23:03.832Z,95923.59
2022-11-16T01:25:09.103Z,95929.63
2022-11-16T01:27:11.782Z,95928.03
2022-11-16T01:29:14.679Z,95927.00
2022-11-16T01:31:17.262Z,95930.63
2022-11-16T01:33:19.847Z,95928.03
2022-11-16T01:35:22.621Z,95929.56
2022-11-16T01:37:25.215Z,95928.88
2022-11-16T01:39:27.790Z,95925.44
2022-11-16T01:41:31.888Z,95920.22
2022-11-16T01:43:51.885Z,95919.28
2022-11-16T01:45:55.106Z,95905.34
2022-11-16T01:47:57.794Z,95911.31
2022-11-16T01:50:07.545Z,95906.03
2022-11-16T01:52:14.228Z,95908.63
2022-11-16T01:54:17.610Z,95901.53
2022-11-16T01:56:21.346Z,95905.09
2022-11-16T01:58:27.315Z,95894.84
2022-11-16T02:00:30.037Z,95894.75
2022-11-16T02:02:32.671Z,95896.16
2022-11-16T02:04:35.318Z,95894.84
2022-11-16T02:06:55.080Z,95896.16
2022-11-16T02:09:30.687Z,95886.75
2022-11-16T02:11:48.692Z,95894.66
2022-11-16T02:14:04.819Z,95892.16
2022-11-16T02:16:15.629Z,95891.22
2022-11-16T02:18:25.686Z,95886.28
2022-11-16T02:21:04.552Z,95888.59
2022-11-16T02:23:51.813Z,95886.19
2022-11-16T02:26:05.841Z,95881.06
2022-11-16T02:28:26.789Z,95890.63
2022-11-16T02:30:30.964Z,95889.81
2022-11-16T02:32:38.600Z,95887.22
2022-11-16T02:34:46.178Z,95890.47
2022-11-16T02:36:52.851Z,95887.78
2022-11-16T02:39:01.853Z,95887.78
2022-11-16T02:41:08.740Z,95890.31
2022-11-16T02:43:16.502Z,95885.00
2022-11-16T02:45:23.282Z,95880.63
2022-11-16T02:47:32.837Z,95881.44
2022-11-16T02:49:41.268Z,95885.75
2022-11-16T02:51:45.735Z,95882.22
2022-11-16T02:54:02.144Z,95882.13
2022-11-16T02:56:04.802Z,95886.41
2022-11-16T02:58:10.667Z,95886.41
2022-11-16T03:00:19.365Z,95886.41
2022-11-16T03:02:28.571Z,95888.06
2022-11-16T03:04:38.505Z,95887.31
2022-11-16T03:06:43.682Z,95884.63
2022-11-16T03:08:53.184Z,95882.88
2022-11-16T03:11:18.479Z,95884.63
2022-11-16T03:13:24.172Z,95888.16
2022-11-16T03:15:27.170Z,95883.72
2022-11-16T03:17:35.347Z,95885.28
2022-11-16T03:19:45.052Z,95881.19
2022-11-16T03:21:52.899Z,95883.72
2022-11-16T03:23:55.662Z,95870.78
2022-11-16T03:25:59.866Z,95874.22
2022-11-16T03:28:07.931Z,95863.78
2022-11-16T03:30:13.916Z,95859.44
2022-11-16T03:32:22.219Z,95858.56
2022-11-16T03:34:30.382Z,95846.50
2022-11-16T03:36:36.319Z,95848.16
2022-11-16T03:38:41.699Z,95833.47
2022-11-16T03:40:47.446Z,95836.16
2022-11-16T03:42:51.053Z,95839.69
2022-11-16T03:44:54.779Z,95828.34
2022-11-16T03:46:57.452Z,95831.81
2022-11-16T03:49:01.826Z,95837.09
2022-11-16T03:51:05.082Z,95851.13
2022-11-16T03:53:09.055Z,95856.34
2022-11-16T03:55:11.768Z,95865.16
2022-11-16T03:57:18.031Z,95870.28
2022-11-16T03:59:20.682Z,95860.81
2022-11-16T04:01:23.352Z,95856.34
2022-11-16T04:03:25.972Z,95855.50
2022-11-16T04:05:46.467Z,95862.41
2022-11-16T04:08:07.771Z,95877.28
2022-11-16T04:10:30.094Z,95886.75
2022-11-16T04:12:50.658Z,95887.59
2022-11-16T04:15:11.015Z,95885.91
2022-11-16T04:17:32.089Z,95891.13
2022-11-16T04:19:55.356Z,95889.44
2022-11-16T04:22:21.551Z,95893.56
2022-11-16T04:24:26.662Z,95899.78
2022-11-16T04:26:44.554Z,95890.78
2022-11-16T04:28:47.186Z,95892.72
2022-11-16T04:31:09.070Z,95891.97
2022-11-16T04:33:29.120Z,95898.22
2022-11-16T04:35:49.499Z,95899.03
2022-11-16T04:37:53.382Z,95900.91
2022-11-16T04:39:55.997Z,95902.84
2022-11-16T04:42:15.231Z,95906.25
2022-11-16T04:44:17.887Z,95903.94
2022-11-16T04:46:37.949Z,95912.31
2022-11-16T04:48:40.575Z,95902.91
2022-11-16T04:50:43.499Z,95905.59
2022-11-16T04:52:46.540Z,95905.59
2022-11-16T04:54:49.148Z,95902.19
2022-11-16T04:56:51.782Z,95911.00
2022-11-16T04:58:55.707Z,95899.66
2022-11-16T05:00:58.326Z,95902.19
2022-11-16T05:03:01.829Z,95907.28
2022-11-16T05:05:04.976Z,95914.25
2022-11-16T05:07:10.948Z,95907.28
2022-11-16T05:09:13.941Z,95916.78
2022-11-16T05:11:16.583Z,95922.81
2022-11-16T05:13:19.178Z,95925.34
2022-11-16T05:15:23.270Z,95926.19
2022-11-16T05:17:27.369Z,95933.53
2022-11-16T05:19:47.494Z,95926.84
2022-11-16T05:21:50.142Z,95930.47
2022-11-16T05:24:10.298Z,95932.22
2022-11-16T05:26:12.926Z,95920.41
2022-11-16T05:28:15.531Z,95917.44
2022-11-16T05:30:18.668Z,95924.50
2022-11-16T05:32:24.672Z,95914.84
2022-11-16T05:34:27.498Z,95920.97
2022-11-16T05:36:30.142Z,95918.28
2022-11-16T05:38:33.108Z,95912.63
2022-11-16T05:40:35.971Z,95920.38
2022-11-16T05:42:38.576Z,95919.44
2022-11-16T05:44:41.219Z,95926.56
2022-11-16T05:46:44.794Z,95913.38
2022-11-16T05:48:49.124Z,95921.38
2022-11-16T05:50:51.767Z,95917.09
2022-11-16T05:52:54.335Z,95920.38
2022-11-16T05:54:56.910Z,95915.16
2022-11-16T05:56:59.528Z,95911.72
2022-11-16T05:59:02.809Z,95909.28
2022-11-16T06:01:05.453Z,95917.00
2022-11-16T06:03:08.133Z,95915.53
2022-11-16T06:05:12.248Z,95915.81
2022-11-16T06:07:14.849Z,95919.25
2022-11-16T06:09:17.596Z,95909.75
2022-11-16T06:11:20.200Z,95905.56
2022-11-16T06:13:22.805Z,95906.59
2022-11-16T06:15:25.436Z,95910.94
2022-11-16T06:17:27.985Z,95915.31
2022-11-16T06:19:32.683Z,95914.56
2022-11-16T06:21:36.765Z,95914.56
2022-11-16T06:23:39.498Z,95917.91
2022-11-16T06:25:42.244Z,95917.09
2022-11-16T06:27:44.894Z,95917.09
2022-11-16T06:29:47.443Z,95920.53
2022-11-16T06:31:50.156Z,95921.47
2022-11-16T06:33:52.709Z,95923.22
2022-11-16T06:35:55.287Z,95923.22
2022-11-16T06:37:59.705Z,95926.00
2022-11-16T06:40:02.302Z,95937.38
2022-11-16T06:42:05.144Z,95938.28
2022-11-16T06:44:07.687Z,95928.78
2022-11-16T06:46:10.283Z,95933.16
2022-11-16T06:48:12.877Z,95941.81
2022-11-16T06:50:19.078Z,95941.72
2022-11-16T06:52:21.812Z,95947.69
2022-11-16T06:54:25.785Z,95952.13
2022-11-16T06:56:28.418Z,95949.53
2022-11-16T06:58:32.609Z,95950.44
2022-11-16T07:00:35.527Z,95951.28
2022-11-16T07:02:38.429Z,95952.31
2022-11-16T07:04:41.005Z,95961.53
2022-11-16T07:06:43.709Z,95968.63
2022-11-16T07:08:46.304Z,95978.19
2022-11-16T07:10:50.234Z,95970.94
2022-11-16T07:12:52.866Z,95971.22
2022-11-16T07:14:55.428Z,95974.56
2022-11-16T07:17:00.357Z,95967.78
2022-11-16T07:19:04.963Z,95973.81
2022-11-16T07:21:07.966Z,95980.44
2022-11-16T07:23:14.179Z,95977.81
2022-11-16T07:25:17.215Z,95991.13
2022-11-16T07:27:21.142Z,95991.22
2022-11-16T07:29:24.523Z,95983.41
2022-11-16T07:31:27.104Z,95995.56
2022-11-16T07:33:29.996Z,95995.66
2022-11-16T07:35:32.656Z,95995.84
2022-11-16T07:37:36.496Z,95993.16
2022-11-16T07:39:39.101Z,96001.72
2022-11-16T07:41:42.456Z,95999.03
2022-11-16T07:43:52.581Z,96005.22
2022-11-16T07:46:21.426Z,96006.25
2022-11-16T07:48:20.936Z,96012.53
2022-11-16T07:50:23.553Z,96010.03
2022-11-16T07:52:26.118Z,96018.44
2022-11-16T07:54:28.711Z,96022.78
2022-11-16T07:56:31.290Z,96024.47
2022-11-16T07:58:35.684Z,96022.63
2022-11-16T08:00:39.833Z,96030.38
2022-11-16T08:02:42.412Z,96018.81
2022-11-16T08:04:45.236Z,96017.84
2022-11-16T08:06:51.635Z,96020.94
2022-11-16T08:08:58.300Z,96023.88
2022-11-16T08:11:02.249Z,96019.66
2022-11-16T08:13:05.260Z,96015.13
2022-11-16T08:15:08.840Z,96021.09
2022-11-16T08:17:13.008Z,96021.75
2022-11-16T08:19:15.576Z,96017.59
2022-11-16T08:21:20.035Z,96024.66
2022-11-16T08:23:22.639Z,96030.56
2022-11-16T08:25:25.544Z,96019.97
2022-11-16T08:27:28.587Z,96023.44
2022-11-16T08:29:31.275Z,96028.09
2022-11-16T08:31:33.969Z,96035.06
2022-11-16T08:33:38.051Z,96028.09
2022-11-16T08:35:40.609Z,96030.63
2022-11-16T08:37:43.202Z,96034.81
2022-11-16T08:39:45.824Z,96034.72
2022-11-16T08:41:48.391Z,96038.16
2022-11-16T08:43:53.281Z,96042.28
2022-11-16T08:45:56.048Z,96042.38
2022-11-16T08:48:04.049Z,96041.94
2022-11-16T08:50:08.850Z,96045.63
2022-11-16T08:52:11.498Z,96050.84
2022-11-16T08:54:14.091Z,96042.28
2022-11-16T08:56:18.655Z,96037.81
2022-11-16T08:58:21.354Z,96041.09
2022-11-16T09:00:24.059Z,96041.34
2022-11-16T09:02:26.692Z,96037.16
2022-11-16T09:04:34.101Z,96038.91
2022-11-16T09:06:40.729Z,96041.53
2022-11-16T09:08:45.172Z,96035.56
2022-11-16T09:10:47.712Z,96038.91
2022-11-16T09:12:50.654Z,96038.72
2022-11-16T09:14:53.274Z,96036.88
2022-11-16T09:16:55.873Z,96029.63
2022-11-16T09:18:58.577Z,96043.69
2022-11-16T09:21:01.131Z,96034.94
2022-11-16T09:23:05.048Z,96031.13
2022-11-16T09:25:09.377Z,96037.84
2022-11-16T09:27:12.334Z,96038.19
2022-11-16T09:29:16.690Z,96051.72
2022-11-16T09:31:23.385Z,96042.41
2022-11-16T09:33:26.862Z,96045.78
2022-11-16T09:35:29.495Z,96047.34
2022-11-16T09:37:32.051Z,96053.13
2022-11-16T09:39:36.018Z,96056.03
2022-11-16T09:42:08.242Z,96055.31
2022-11-16T09:44:17.799Z,96048.94
2022-11-16T09:46:26.668Z,96051.50
2022-11-16T09:48:29.690Z,96054.00
2022-11-16T09:50:45.856Z,96045.72
2022-11-16T09:52:52.451Z,96045.69
2022-11-16T09:54:59.014Z,96037.97
2022-11-16T09:57:12.036Z,96042.00
2022-11-16T09:59:22.793Z,96046.66
2022-11-16T10:01:30.230Z,96038.09
2022-11-16T10:03:41.692Z,96044.31
2022-11-16T10:05:49.659Z,96049.72
2022-11-16T10:07:59.789Z,96045.25
2022-11-16T10:10:03.753Z,96044.22
2022-11-16T10:12:19.375Z,96045.63
2022-11-16T10:14:41.816Z,96049.22
2022-11-16T10:16:50.379Z,96035.53
2022-11-16T10:18:58.406Z,96031.41
2022-11-16T10:21:33.105Z,96023.03
2022-11-16T10:23:49.988Z,96027.91
2022-11-16T10:25:58.985Z,96020.47
2022-11-16T10:28:36.232Z,96024.09
2022-11-16T10:30:47.017Z,96026.13
2022-11-16T10:32:56.026Z,96025.94
2022-11-16T10:35:05.235Z,96021.59
2022-11-16T10:37:08.759Z,96011.56
2022-11-16T10:39:14.453Z,96017.03
2022-11-16T10:41:23.683Z,96016.91
2022-11-16T10:43:29.408Z,96010.38
2022-11-16T10:45:40.620Z,96008.03
2022-11-16T10:47:50.539Z,96005.50
2022-11-16T10:49:57.972Z,95998.81
2022-11-16T10:52:00.631Z,95996.56
2022-11-16T10:54:04.786Z,95993.16
2022-11-16T10:56:22.177Z,95987.22
2022-11-16T10:58:24.762Z,95994.97
2022-11-16T11:00:36.096Z,95996.56
2022-11-16T11:02:39.898Z,95995.22
2022-11-16T11:04:42.531Z,95994.47
2022-11-16T11:06:45.829Z,95991.75
2022-11-16T11:08:48.432Z,95983.06
2022-11-16T11:11:01.648Z,95981.31
2022-11-16T11:13:20.812Z,95987.66
2022-11-16T11:15:27.086Z,95983.59
2022-11-16T11:17:31.013Z,95978.91
2022-11-16T11:19:33.600Z,95973.78
2022-11-16T11:21:36.173Z,95977.56
2022-11-16T11:23:44.475Z,95973.59
2022-11-16T11:25:54.427Z,95976.84
2022-11-16T11:28:08.697Z,95974.22
2022-11-16T11:30:20.443Z,95970.06
2022-11-16T11:32:26.131Z,95973.41
2022-11-16T11:34:30.908Z,95967.53
2022-11-16T11:36:38.413Z,95969.22
2022-11-16T11:38:57.589Z,95974.13
2022-11-16T11:41:01.934Z,95972.03
2022-11-16T11:43:06.967Z,95980.00
2022-11-16T11:45:16.187Z,95974.22
2022-11-16T11:47:56.122Z,95985.50
2022-11-16T11:49:57.502Z,95981.22
2022-11-16T11:52:05.113Z,95983.53
2022-11-16T11:54:08.739Z,95987.16
2022-11-16T11:56:12.900Z,95993.44
2022-11-16T11:58:21.969Z,95982.03
2022-11-16T12:00:26.225Z,95981.50
2022-11-16T12:02:45.598Z,95978.47
2022-11-16T12:05:18.603Z,95975.66
2022-11-16T12:07:45.129Z,95973.88
2022-11-16T12:09:58.066Z,95974.28
2022-11-16T12:12:15.003Z,95970.81
2022-11-16T12:14:33.710Z,95961.41
2022-11-16T12:16:42.770Z,95968.03
2022-11-16T12:19:05.570Z,95956.97
2022-11-16T12:21:14.042Z,95956.44
2022-11-16T12:23:37.688Z,95957.56
2022-11-16T12:25:49.403Z,95958.72
2022-11-16T12:28:04.041Z,95958.72
2022-11-16T12:30:14.530Z,95956.53
2022-11-16T12:32:39.841Z,95958.31
2022-11-16T12:35:01.202Z,95957.03
2022-11-16T12:37:11.909Z,95960.72
2022-11-16T12:39:24.846Z,95955.16
2022-11-16T12:41:44.877Z,95947.75
2022-11-16T12:43:56.594Z,95958.63
2022-11-16T12:46:12.453Z,95953.06
2022-11-16T12:48:45.195Z,95957.56
2022-11-16T12:50:58.053Z,95949.94
2022-11-16T12:53:19.811Z,95946.06
2022-11-16T12:55:30.212Z,95948.91
2022-11-16T12:57:45.143Z,95945.97
2022-11-16T13:00:05.928Z,95946.03
2022-11-16T13:02:24.423Z,95943.78
2022-11-16T13:04:31.643Z,95941.69
2022-11-16T13:06:39.658Z,95941.34
2022-11-16T13:08:49.413Z,95946.28
2022-11-16T13:10:59.410Z,95949.81
2022-11-16T13:13:35.007Z,95940.50
2022-11-16T13:15:34.687Z,95945.41
2022-11-16T13:17:40.933Z,95931.72
2022-11-16T13:19:47.907Z,95945.31
2022-11-16T13:21:59.888Z,95937.78
2022-11-16T13:24:23.402Z,95933.59
2022-11-16T13:26:32.506Z,95931.59
2022-11-16T13:28:41.221Z,95927.13
2022-11-16T13:30:52.188Z,95929.44
2022-11-16T13:33:13.684Z,95922.44
2022-11-16T13:35:18.602Z,95914.91
2022-11-16T13:37:44.374Z,95921.41
2022-11-16T13:40:27.160Z,95929.03
2022-11-16T13:42:31.518Z,95925.06
2022-11-16T13:44:34.867Z,95915.75
2022-11-16T13:46:55.472Z,95923.06
2022-11-16T13:49:00.097Z,95914.81
2022-11-16T13:51:04.968Z,95912.50
2022-11-16T13:54:17.578Z,95909.25
2022-11-16T13:55:41.537Z,95907.59
2022-11-16T13:57:51.967Z,95909.78
2022-11-16T14:00:10.165Z,95905.16
2022-11-16T14:02:31.811Z,95902.09
2022-11-16T14:04:54.519Z,95894.84
2022-11-16T14:07:00.429Z,95902.19
2022-11-16T14:09:03.148Z,95900.31
2022-11-16T14:11:26.626Z,95895.63
2022-11-16T14:13:41.167Z,95902.25
2022-11-16T14:15:43.807Z,95897.63
2022-11-16T14:17:54.965Z,95902.88
2022-11-16T14:19:58.968Z,95897.63
2022-11-16T14:22:09.046Z,95894.59
2022-11-16T14:24:22.420Z,95890.53
2022-11-16T14:26:38.271Z,95886.44
2022-11-16T14:29:08.679Z,95882.56
2022-11-16T14:31:21.435Z,95879.84
2022-11-16T14:33:33.189Z,95876.94
2022-11-16T14:35:40.653Z,95876.25
2022-11-16T14:37:43.437Z,95870.63
2022-11-16T14:39:46.310Z,95875.50
2022-11-16T14:41:49.039Z,95867.78
2022-11-16T14:43:54.736Z,95863.50
2022-11-16T14:46:02.462Z,95865.16
2022-11-16T14:48:07.951Z,95866.44
2022-11-16T14:50:19.981Z,95851.78
2022-11-16T14:52:31.361Z,95860.91
2022-11-16T14:54:42.532Z,95865.72
2022-11-16T14:56:59.345Z,95867.84
2022-11-16T14:59:03.265Z,95862.78
2022-11-16T15:01:08.827Z,95859.66
2022-11-16T15:03:13.182Z,95862.59
2022-11-16T15:05:17.811Z,95858.53
2022-11-16T15:07:23.539Z,95859.06
2022-11-16T15:09:30.832Z,95859.38
2022-11-16T15:11:54.827Z,95860.66
2022-11-16T15:13:57.510Z,95860.03
2022-11-16T15:16:11.358Z,95858.66
2022-11-16T15:18:17.878Z,95851.09
2022-11-16T15:20:24.405Z,95855.91
2022-11-16T15:22:29.555Z,95858.97
2022-11-16T15:24:34.821Z,95855.81
2022-11-16T15:26:39.411Z,95858.63
2022-11-16T15:28:47.184Z,95861.72
2022-11-16T15:30:55.209Z,95867.56
2022-11-16T15:32:58.358Z,95863.66
2022-11-16T15:35:05.119Z,95854.38
2022-11-16T15:37:12.054Z,95850.56
2022-11-16T15:39:19.499Z,95844.16
2022-11-16T15:41:25.394Z,95842.06
2022-11-16T15:43:32.859Z,95833.06
2022-11-16T15:45:38.487Z,95832.63
2022-11-16T15:47:41.674Z,95822.19
2022-11-16T15:49:49.529Z,95827.25
2022-11-16T15:51:52.175Z,95825.22
2022-11-16T15:53:56.332Z,95829.91
2022-11-16T15:55:58.972Z,95830.94
2022-11-16T15:58:12.776Z,95833.66
2022-11-16T16:00:23.470Z,95852.50
2022-11-16T16:02:28.530Z,95850.16
2022-11-16T16:04:31.346Z,95847.94
2022-11-16T16:06:45.635Z,95850.75
2022-11-16T16:09:05.218Z,95839.75
2022-11-16T16:11:11.760Z,95837.41
2022-11-16T16:13:27.831Z,95835.97
2022-11-16T16:15:33.906Z,95829.03
2022-11-16T16:17:36.506Z,95827.47
2022-11-16T16:19:42.214Z,95825.88
2022-11-16T16:21:46.912Z,95831.31
2022-11-16T16:23:51.363Z,95830.00
2022-11-16T16:25:54.008Z,95837.16
2022-11-16T16:27:56.686Z,95843.38
2022-11-16T16:30:06.897Z,95838.56
2022-11-16T16:32:14.524Z,95840.31
2022-11-16T16:34:17.899Z,95838.56
2022-11-16T16:36:20.504Z,95833.25
2022-11-16T16:38:23.142Z,95833.34
2022-11-16T16:40:26.147Z,95827.34
2022-11-16T16:42:28.770Z,95833.41
2022-11-16T16:44:31.401Z,95827.44
2022-11-16T16:46:35.365Z,95833.88
2022-11-16T16:48:44.631Z,95833.97
2022-11-16T16:50:47.523Z,95828.38
2022-11-16T16:52:50.074Z,95827.53
2022-11-16T16:54:52.681Z,95825.03
2022-11-16T16:56:55.846Z,95826.78
2022-11-16T16:58:58.397Z,95825.88
2022-11-16T17:01:04.796Z,95821.84
2022-11-16T17:03:11.911Z,95817.66
2022-11-16T17:05:14.522Z,95810.78
2022-11-16T17:07:17.527Z,95811.44
2022-11-16T17:09:20.933Z,95807.72
2022-11-16T17:11:23.582Z,95803.50
2022-11-16T17:13:26.223Z,95796.22
2022-11-16T17:15:28.905Z,95799.31
2022-11-16T17:17:32.608Z,95802.81
2022-11-16T17:19:36.988Z,95798.00
2022-11-16T17:21:39.610Z,95798.84
2022-11-16T17:23:42.173Z,95807.66
2022-11-16T17:25:44.807Z,95797.56
2022-11-16T17:27:48.155Z,95802.97
2022-11-16T17:29:50.863Z,95798.03
2022-11-16T17:31:53.466Z,95794.50
2022-11-16T17:33:57.458Z,95789.66
2022-11-16T17:36:03.745Z,95786.31
2022-11-16T17:38:06.314Z,95777.84
2022-11-16T17:40:10.432Z,95779.88
2022-11-16T17:42:15.554Z,95779.78
2022-11-16T17:44:21.907Z,95779.28
2022-11-16T17:46:26.232Z,95766.66
2022-11-16T17:48:28.781Z,95768.69
2022-11-16T17:50:31.379Z,95766.19
2022-11-16T17:52:35.822Z,95768.69
2022-11-16T17:54:38.445Z,95768.63
2022-11-16T17:56:41.152Z,95766.53
2022-11-16T17:58:45.032Z,95765.81
2022-11-16T18:00:49.738Z,95762.84
2022-11-16T18:02:52.314Z,95767.75
2022-11-16T18:04:54.919Z,95764.69
2022-11-16T18:06:59.638Z,95766.53
2022-11-16T18:09:03.728Z,95762.44
2022-11-16T18:11:07.514Z,95755.97
2022-11-16T18:13:10.159Z,95758.06
2022-11-16T18:15:27.986Z,95750.25
2022-11-16T18:17:32.482Z,95754.66
2022-11-16T18:19:35.365Z,95753.41
2022-11-16T18:21:40.251Z,95755.81
2022-11-16T18:23:43.289Z,95751.63
2022-11-16T18:25:47.272Z,95748.44
2022-11-16T18:27:52.662Z,95741.75
2022-11-16T18:29:55.273Z,95734.63
2022-11-16T18:31:57.924Z,95731.00
2022-11-16T18:34:02.015Z,95723.47
2022-11-16T18:36:05.787Z,95718.44
2022-11-16T18:38:12.864Z,95716.84
2022-11-16T18:40:15.774Z,95711.56
2022-11-16T18:42:19.729Z,95693.34
2022-11-16T18:44:22.363Z,95692.34
2022-11-16T18:46:26.874Z,95694.00
2022-11-16T18:48:29.624Z,95682.03
2022-11-16T18:50:32.284Z,95674.47
2022-11-16T18:52:34.882Z,95681.38
2022-11-16T18:54:37.493Z,95679.69
2022-11-16T18:56:40.087Z,95685.72
2022-11-16T18:58:50.320Z,95674.66
2022-11-16T19:00:54.909Z,95673.00
2022-11-16T19:02:57.619Z,95671.22
2022-11-16T19:05:00.273Z,95669.66
2022-11-16T19:07:02.902Z,95673.25
2022-11-16T19:09:09.557Z,95674.84
2022-11-16T19:11:14.416Z,95666.47
2022-11-16T19:13:17.079Z,95676.31
2022-11-16T19:15:21.049Z,95670.94
2022-11-16T19:17:24.842Z,95674.09
2022-11-16T19:19:29.208Z,95672.69
2022-11-16T19:21:35.322Z,95673.44
2022-11-16T19:23:38.815Z,95670.66
2022-11-16T19:25:41.413Z,95667.06
2022-11-16T19:27:44.128Z,95659.63
2022-11-16T19:29:46.705Z,95657.97
2022-11-16T19:31:50.839Z,95667.91
2022-11-16T19:33:57.962Z,95672.97
2022-11-16T19:36:00.567Z,95672.13
2022-11-16T19:38:03.162Z,95668.31
2022-11-16T19:40:06.951Z,95669.91
2022-11-16T19:42:09.606Z,95675.09
2022-11-16T19:44:12.344Z,95675.94
2022-11-16T19:46:17.520Z,95679.38
2022-11-16T19:48:21.455Z,95673.91
2022-11-16T19:50:25.262Z,95677.41
2022-11-16T19:52:27.941Z,95678.00
2022-11-16T19:54:30.629Z,95687.19
2022-11-16T19:56:33.383Z,95690.94
2022-11-16T19:58:37.204Z,95690.19
2022-11-16T20:00:40.116Z,95696.13
2022-11-16T20:02:42.746Z,95693.91
2022-11-16T20:04:46.781Z,95700.88
2022-11-16T20:06:49.489Z,95698.25
2022-11-16T20:08:53.854Z,95693.81
2022-11-16T20:10:56.519Z,95682.66
2022-11-16T20:12:59.323Z,95688.50
2022-11-16T20:15:02.873Z,95677.34
2022-11-16T20:17:05.993Z,95669.63
2022-11-16T20:19:10.353Z,95654.97
2022-11-16T20:21:19.551Z,95650.50
2022-11-16T20:23:22.137Z,95652.28
2022-11-16T20:25:24.719Z,95653.88
2022-11-16T20:27:27.382Z,95645.41
2022-11-16T20:29:30.005Z,95645.41
2022-11-16T20:31:34.169Z,95635.91
2022-11-16T20:33:37.395Z,95634.16
2022-11-16T20:35:40.229Z,95631.66
2022-11-16T20:37:46.025Z,95627.25
2022-11-16T20:39:52.451Z,95630.91
2022-11-16T20:41:55.050Z,95632.75
2022-11-16T20:43:59.369Z,95631.34
2022-11-16T20:46:02.071Z,95635.88
2022-11-16T20:48:05.282Z,95638.78
2022-11-16T20:50:08.224Z,95636.56
2022-11-16T20:52:13.633Z,95635.59
2022-11-16T20:54:17.705Z,95634.94
2022-11-16T20:56:20.976Z,95629.84
2022-11-16T20:58:23.560Z,95626.59
2022-11-16T21:00:27.478Z,95627.78
2022-11-16T21:02:30.084Z,95629.53
2022-11-16T21:04:32.729Z,95628.63
2022-11-16T21:06:35.471Z,95620.81
2022-11-16T21:08:39.081Z,95618.31
2022-11-16T21:10:43.239Z,95611.25
2022-11-16T21:13:03.791Z,95610.78
2022-11-16T21:15:07.509Z,95605.72
2022-11-16T21:17:10.109Z,95611.16
2022-11-16T21:19:13.363Z,95607.84
2022-11-16T21:21:15.985Z,95610.06
2022-11-16T21:23:18.609Z,95610.38
2022-11-16T21:25:21.266Z,95607.19
2022-11-16T21:27:25.251Z,95613.03
2022-11-16T21:29:28.153Z,95598.28
2022-11-16T21:31:33.237Z,95606.94
2022-11-16T21:33:36.133Z,95604.97
2022-11-16T21:35:39.161Z,95611.91
2022-11-16T21:37:41.770Z,95607.00
2022-11-16T21:39:44.322Z,95603.56
2022-11-16T21:41:46.959Z,95599.28
2022-11-16T21:43:51.182Z,95602.00
2022-11-16T21:45:54.153Z,95594.19
2022-11-16T21:47:57.453Z,95595.00
2022-11-16T21:50:30.077Z,95588.88
2022-11-16T21:52:22.620Z,95587.03
2022-11-16T21:54:45.190Z,95593.06
2022-11-16T21:56:47.810Z,95587.28
2022-11-16T21:58:52.784Z,95588.97
2022-11-16T22:00:56.430Z,95602.25
2022-11-16T22:02:59.298Z,95601.03
2022-11-16T22:05:19.617Z,95607.94
2022-11-16T22:07:36.707Z,95601.03
2022-11-16T22:09:39.455Z,95594.94
2022-11-16T22:11:42.019Z,95582.66
2022-11-16T22:13:45.218Z,95591.19
2022-11-16T22:15:49.355Z,95583.16
2022-11-16T22:17:52.018Z,95579.31
2022-11-16T22:19:55.116Z,95582.75
2022-11-16T22:21:59.223Z,95579.41
2022-11-16T22:24:02.612Z,95576.72
2022-11-16T22:26:07.680Z,95573.38
2022-11-16T22:28:25.736Z,95580.25
2022-11-16T22:30:28.332Z,95576.06
2022-11-16T22:32:32.356Z,95576.06
2022-11-16T22:34:34.958Z,95574.09
2022-11-16T22:36:37.516Z,95564.66
2022-11-16T22:38:40.153Z,95568.75
2022-11-16T22:40:48.953Z,95569.41
2022-11-16T22:42:51.811Z,95568.44
2022-11-16T22:44:54.394Z,95563.25
2022-11-16T22:46:57.051Z,95565.75
2022-11-16T22:49:01.050Z,95570.03
2022-11-16T22:51:05.734Z,95562.16
2022-11-16T22:53:08.401Z,95557.75
2022-11-16T22:55:11.358Z,95544.84
2022-11-16T22:57:13.923Z,95544.00
2022-11-16T22:59:16.512Z,95547.25
2022-11-16T23:01:19.839Z,95541.22
2022-11-16T23:03:22.598Z,95533.44
2022-11-16T23:05:26.662Z,95537.69
2022-11-16T23:07:29.301Z,95537.69
2022-11-16T23:09:32.114Z,95540.94
2022-11-16T23:11:52.402Z,95546.16
2022-11-16T23:14:15.563Z,95557.31
2022-11-16T23:16:18.133Z,95552.75
2022-11-16T23:18:20.741Z,95550.34
2022-11-16T23:20:40.937Z,95547.84
2022-11-16T23:22:58.844Z,95545.78
2022-11-16T23:25:18.887Z,95542.34
2022-11-16T23:27:30.482Z,95538.78
2022-11-16T23:29:33.346Z,95531.63
2022-11-16T23:31:36.025Z,95535.06
2022-11-16T23:33:47.817Z,95526.16
2022-11-16T23:35:50.278Z,95523.81
2022-11-16T23:37:56.218Z,95519.34
2022-11-16T23:39:58.789Z,95523.66
2022-11-16T23:42:19.221Z,95512.19
2022-11-16T23:44:21.818Z,95512.19
2022-11-16T23:46:24.553Z,95497.22
2022-11-16T23:48:27.156Z,95496.38
2022-11-16T23:50:29.731Z,95486.81
2022-11-16T23:52:32.287Z,95478.91
2022-11-16T23:54:36.241Z,95475.28
2022-11-16T23:56:38.782Z,95459.75
2022-11-16T23:58:41.365Z,95461.41
